Time;durP1;ratioP1;P1;durP2;ratioP2;P2;SDS_P1;SDS_P2;PMS_P1;PMS_P2;Temp;Humidity;BMP_temperature;BMP_pressure;BME280_temperature;BME280_humidity;BME280_pressure;Samples;Min_cycle;Max_cycle;Signal;HPM_P1;HPM_P2
2022/10/06 00:04:10;;;;;;;;;;;11.20;99.90;;;9.20;96.63;101186.38;10539087;28;20074;-85
2022/10/06 00:09:13;;;;;;;;;;;11.20;99.90;;;9.19;96.85;101188.19;10507747;28;20018;-84
2022/10/06 00:14:15;;;;;;;;;;;11.20;99.90;;;9.22;97.30;101201.19;10520449;28;20458;-85
2022/10/06 00:19:18;;;;;;;;;;;11.20;99.90;;;9.23;97.17;101194.88;10542716;28;19978;-85
2022/10/06 00:24:21;;;;;;;;;;;11.20;99.90;;;9.20;97.07;101194.34;10535437;28;20306;-86
2022/10/06 00:29:23;;;;;;;;;;;11.20;99.90;;;9.18;97.32;101191.00;10528699;28;20461;-85
2022/10/06 00:34:26;;;;;;;;;;;11.10;99.90;;;9.13;97.26;101191.38;10537650;28;19934;-84
2022/10/06 00:39:28;;;;;;;;;;;11.10;99.90;;;9.03;96.90;101182.56;10520907;28;19928;-85
2022/10/06 00:44:32;;;;;;;;;;;11.10;99.90;;;9.00;97.23;101178.38;10544964;28;19967;-85
2022/10/06 00:49:36;;;;;;;;;;;11.00;99.90;;;8.97;97.22;101175.13;10540891;28;20489;-85
2022/10/06 00:54:39;;;;;;;;;;;11.00;99.90;;;8.91;97.20;101187.09;10542506;28;20396;-85
2022/10/06 00:59:42;;;;;;;;;;;10.90;99.90;;;8.83;96.93;101185.13;10513584;28;19929;-85
2022/10/06 01:04:47;;;;;;;;;;;10.80;99.90;;;8.74;96.89;101183.25;10520871;28;19935;-85
2022/10/06 01:09:50;;;;;;;;;;;10.70;99.90;;;8.66;97.08;101180.44;10540259;28;20435;-85
2022/10/06 01:14:53;;;;;;;;;;;10.70;99.90;;;8.60;96.85;101190.72;10521170;28;19936;-84
2022/10/06 01:20:14;;;;;;;;;;;10.60;99.90;;;8.51;96.96;101193.16;10538173;28;19975;-84
2022/10/06 01:25:17;;;;;;;;;;;10.50;99.90;;;8.44;97.02;101199.13;10525009;28;19936;-84
2022/10/06 01:30:25;;;;;;;;;;;10.50;99.90;;;8.37;97.23;101200.59;10535196;28;19932;-84
2022/10/06 01:35:28;;;;;;;;;;;10.40;99.90;;;8.30;97.11;101206.38;10519790;28;19928;-84
2022/10/06 01:40:31;;;;;;;;;;;10.30;99.90;;;8.23;97.21;101204.38;10531044;28;19931;-84
2022/10/06 01:45:33;;;;;;;;;;;10.20;99.90;;;8.18;97.34;101207.41;10549854;28;19932;-84
2022/10/06 01:50:36;;;;;;;;;;;10.20;99.90;;;8.14;97.39;101215.72;10537244;28;19928;-84
2022/10/06 01:55:39;;;;;;;;;;;10.10;99.90;;;8.09;97.61;101207.31;10537731;28;19929;-85
2022/10/06 02:00:42;;;;;;;;;;;10.10;99.90;;;8.08;97.71;101206.50;10540159;28;19958;-84
2022/10/06 02:05:45;;;;;;;;;;;10.10;99.90;;;8.04;97.65;101202.44;10536987;28;19935;-84
2022/10/06 02:10:47;;;;;;;;;;;10.00;99.90;;;7.99;97.65;101194.03;10504353;28;19968;-84
2022/10/06 02:15:55;;;;;;;;;;;10.00;99.90;;;7.96;97.63;101202.22;10524473;28;20411;-84
2022/10/06 02:20:58;;;;;;;;;;;9.90;99.90;;;7.95;97.89;101211.13;10522813;28;19960;-84
2022/10/06 02:26:03;;;;;;;;;;;9.90;99.90;;;7.89;97.75;101206.34;10540129;28;19928;-84
2022/10/06 02:31:07;;;;;;;;;;;9.90;99.90;;;7.83;97.87;101201.53;10520901;28;20358;-84
2022/10/06 02:36:15;;;;;;;;;;;9.90;99.90;;;7.78;97.99;101201.91;10508414;28;19935;-85
2022/10/06 02:41:18;;;;;;;;;;;9.80;99.90;;;7.77;98.03;101209.00;10524684;28;19983;-84
2022/10/06 02:46:22;;;;;;;;;;;9.80;99.90;;;7.77;98.41;101208.19;10541307;28;19978;-84
2022/10/06 02:51:25;;;;;;;;;;;9.80;99.90;;;7.72;98.23;101203.25;10536555;28;20443;-84
2022/10/06 02:56:28;;;;;;;;;;;9.80;99.90;;;7.71;98.40;101204.22;10523382;28;19951;-84
2022/10/06 03:01:31;;;;;;;;;;;9.70;99.90;;;7.71;98.69;101209.50;10519541;28;19932;-84
2022/10/06 03:06:34;;;;;;;;;;;9.70;99.90;;;7.66;98.66;101211.69;10534288;28;19929;-84
2022/10/06 03:11:39;;;;;;;;;;;9.70;99.90;;;7.59;98.61;101210.50;10527236;28;20016;-84
2022/10/06 03:16:42;;;;;;;;;;;9.60;99.90;;;7.58;98.67;101213.28;10515324;28;20314;-84
2022/10/06 03:21:45;;;;;;;;;;;9.60;99.90;;;7.52;98.81;101217.25;10536865;28;19932;-84
2022/10/06 03:26:47;;;;;;;;;;;9.50;99.90;;;7.49;98.72;101214.84;10546461;28;19928;-84
2022/10/06 03:31:50;;;;;;;;;;;9.50;99.90;;;7.44;98.68;101219.69;10528821;28;19932;-84
2022/10/06 03:36:53;;;;;;;;;;;9.50;99.90;;;7.41;98.95;101212.00;10539241;28;20013;-85
2022/10/06 03:41:55;;;;;;;;;;;9.40;99.90;;;7.35;98.94;101217.78;10520227;28;19929;-85
2022/10/06 03:46:58;;;;;;;;;;;9.40;99.90;;;7.32;98.92;101220.66;10535759;28;19928;-85
2022/10/06 03:52:01;;;;;;;;;;;9.30;99.90;;;7.23;98.91;101216.94;10538212;28;19983;-85
2022/10/06 03:57:03;;;;;;;;;;;9.30;99.90;;;7.19;98.93;101218.13;10527274;28;20030;-85
2022/10/06 04:02:06;;;;;;;;;;;9.20;99.90;;;7.17;98.94;101228.84;10525780;28;19935;-85
2022/10/06 04:07:08;;;;;;;;;;;9.20;99.90;;;7.12;99.01;101228.34;10543660;28;20023;-85
2022/10/06 04:12:11;;;;;;;;;;;9.10;99.90;;;7.11;99.05;101234.59;10538147;28;20408;-85
2022/10/06 04:17:14;;;;;;;;;;;9.10;99.90;;;7.09;99.36;101235.69;10524997;28;19928;-85
2022/10/06 04:22:16;;;;;;;;;;;9.10;99.90;;;7.08;99.26;101232.22;10543012;28;19983;-85
2022/10/06 04:27:28;;;;;;;;;;;9.10;99.90;;;7.04;99.31;101229.94;10503341;28;19935;-84
2022/10/06 04:32:31;;;;;;;;;;;9.10;99.90;;;7.02;99.43;101229.19;10506427;28;19929;-85
2022/10/06 04:37:33;;;;;;;;;;;9.00;99.90;;;7.00;99.36;101237.25;10534140;28;19958;-85
2022/10/06 04:42:36;;;;;;;;;;;9.00;99.90;;;6.97;99.76;101237.50;10534573;28;19929;-85
2022/10/06 04:47:39;;;;;;;;;;;9.00;99.90;;;6.95;99.79;101236.75;10517518;28;19991;-85
2022/10/06 04:52:42;;;;;;;;;;;9.00;99.90;;;6.91;99.56;101233.53;10536322;28;19935;-84
2022/10/06 04:57:45;;;;;;;;;;;8.90;99.90;;;6.90;99.64;101236.28;10513823;28;19929;-83
2022/10/06 05:02:47;;;;;;;;;;;8.90;99.90;;;6.88;99.66;101235.56;10519384;28;19935;-83
2022/10/06 05:07:51;;;;;;;;;;;8.90;99.90;;;6.89;100.00;101234.59;10522818;28;19982;-83
2022/10/06 05:12:56;;;;;;;;;;;8.90;99.90;;;6.88;100.00;101241.66;10543159;28;19982;-83
2022/10/06 05:17:59;;;;;;;;;;;8.90;99.90;;;6.90;99.91;101247.69;10535966;28;19976;-83
2022/10/06 05:23:06;;;;;;;;;;;8.90;99.90;;;6.93;100.00;101251.91;10541363;28;21237;-84
2022/10/06 05:28:08;;;;;;;;;;;9.00;99.90;;;7.00;100.00;101244.31;10539872;28;19928;-85
2022/10/06 05:33:11;;;;;;;;;;;9.00;99.90;;;7.07;100.00;101248.16;10535996;28;19936;-85
2022/10/06 05:38:14;;;;;;;;;;;9.10;99.90;;;7.17;100.00;101244.69;10521460;28;19935;-84
2022/10/06 05:43:17;;;;;;;;;;;9.20;99.90;;;7.27;100.00;101250.13;10533114;28;19928;-85
2022/10/06 05:48:20;;;;;;;;;;;9.30;99.90;;;7.41;100.00;101252.50;10538916;28;19928;-85
2022/10/06 05:53:22;;;;;;;;;;;9.40;99.90;;;7.56;100.00;101258.38;10529368;28;19928;-84
2022/10/06 05:58:25;;;;;;;;;;;9.60;99.90;;;7.71;100.00;101254.50;10512347;28;20380;-84
2022/10/06 06:03:28;;;;;;;;;;;9.70;99.90;;;7.87;100.00;101266.50;10545309;28;20019;-85
2022/10/06 06:08:31;;;;;;;;;;;9.90;99.90;;;8.02;100.00;101267.88;10530661;28;20027;-84
2022/10/06 06:13:34;;;;;;;;;;;10.00;99.90;;;8.16;100.00;101274.72;10536401;28;20367;-85
2022/10/06 06:18:40;;;;;;;;;;;10.20;99.90;;;8.29;100.00;101284.16;10524384;28;20403;-84
2022/10/06 06:23:45;;;;;;;;;;;10.30;99.90;;;8.39;100.00;101288.72;10528055;28;19932;-85
2022/10/06 06:28:49;;;;;;;;;;;10.40;99.90;;;8.50;100.00;101293.97;10520256;28;19967;-85
2022/10/06 06:33:55;;;;;;;;;;;10.50;99.90;;;8.61;100.00;101293.91;10534885;28;19978;-84
2022/10/06 06:38:57;;;;;;;;;;;10.60;99.90;;;8.69;100.00;101298.56;10540328;28;20438;-85
2022/10/06 06:44:00;;;;;;;;;;;10.70;99.90;;;8.81;100.00;101308.97;10521728;28;19978;-85
2022/10/06 06:49:04;;;;;;;;;;;10.80;99.90;;;8.91;100.00;101305.56;10530899;28;19928;-85
2022/10/06 06:54:08;;;;;;;;;;;10.90;99.90;;;8.98;100.00;101312.00;10510113;28;19936;-85
2022/10/06 06:59:12;;;;;;;;;;;11.00;99.90;;;9.08;100.00;101304.97;10523160;28;19932;-85
2022/10/06 07:04:16;;;;;;;;;;;11.10;99.90;;;9.17;100.00;101317.41;10517137;28;19928;-85
2022/10/06 07:09:19;;;;;;;;;;;11.20;99.90;;;9.25;100.00;101316.78;10526594;28;19978;-85
2022/10/06 07:14:23;;;;;;;;;;;11.20;99.90;;;9.40;100.00;101326.06;10522095;28;19983;-85
2022/10/06 07:30:10;;;;;;;;;;;11.90;99.90;;;10.19;100.00;101323.50;10528143;28;19928;-85
2022/10/06 07:35:15;;;;;;;;;;;12.20;99.90;;;10.49;100.00;101332.34;10489596;28;20354;-85
2022/10/06 07:40:18;;;;;;;;;;;12.50;99.90;;;10.78;100.00;101330.53;10538707;28;20023;-85
2022/10/06 07:45:37;;;;;;;;;;;12.80;99.90;;;11.09;100.00;101333.00;10532671;28;20027;-85
2022/10/06 07:50:41;;;;;;;;;;;13.10;99.90;;;11.37;99.44;101332.06;10517310;28;19928;-85
2022/10/06 07:55:46;;;;;;;;;;;13.40;99.90;;;11.60;97.70;101324.56;10514752;28;19934;-86
2022/10/06 08:00:51;;;;;;;;;;;13.60;99.90;;;11.83;97.05;101325.06;10529591;28;20035;-86
2022/10/06 08:05:58;;;;;;;;;;;13.90;99.90;;;12.13;95.92;101326.56;10540822;28;19928;-86
2022/10/06 08:11:01;;;;;;;;;;;14.20;99.90;;;12.38;93.44;101319.63;10535939;28;20387;-86
2022/10/06 08:16:06;;;;;;;;;;;14.40;99.90;;;12.66;92.21;101323.06;10524047;28;20031;-86
2022/10/06 08:21:14;;;;;;;;;;;14.70;99.90;;;12.94;90.66;101331.75;10563503;28;19928;-86
2022/10/06 08:26:18;;;;;;;;;;;15.00;99.90;;;13.19;89.04;101335.44;10553991;27;19970;-86
2022/10/06 08:31:22;;;;;;;;;;;15.20;99.90;;;13.31;87.33;101336.03;10514051;28;19934;-86
2022/10/06 08:36:26;;;;;;;;;;;15.50;99.90;;;13.45;85.54;101340.81;10503770;28;20360;-85
2022/10/06 08:41:47;;;;;;;;;;;15.60;99.90;;;13.64;84.65;101343.22;10536653;28;20383;-86
2022/10/06 08:47:04;;;;;;;;;;;15.80;99.90;;;13.80;83.99;101333.63;10546246;28;19955;-87
2022/10/06 08:52:29;;;;;;;;;;;16.00;99.90;;;14.03;82.72;101339.19;10528268;28;19928;-86
2022/10/06 08:57:50;;;;;;;;;;;16.20;99.90;;;14.24;81.33;101336.09;10531069;28;19928;-86
2022/10/06 09:02:53;;;;;;;;;;;16.40;99.90;;;14.53;80.78;101325.81;10530657;28;19951;-86
2022/10/06 09:08:23;;;;;;;;;;;16.60;99.90;;;14.75;77.91;101326.13;10533551;28;19929;-87
2022/10/06 09:13:32;;;;;;;;;;;16.90;99.90;;;15.03;78.04;101318.59;10528530;28;19928;-86
2022/10/06 09:18:53;;;;;;;;;;;17.10;99.90;;;15.35;76.64;101323.84;10540181;28;19968;-86
2022/10/06 09:24:29;;;;;;;;;;;17.40;99.90;;;15.65;75.47;101326.81;10518295;28;19928;-86
2022/10/06 09:29:31;;;;;;;;;;;17.70;99.90;;;15.83;75.39;101326.56;10503149;28;19936;-86
2022/10/06 09:34:34;;;;;;;;;;;17.90;99.90;;;16.02;75.26;101328.84;10522411;28;20292;-86
2022/10/06 09:39:43;;;;;;;;;;;18.10;99.90;;;16.18;73.60;101325.19;10537515;28;19937;-86
2022/10/06 09:44:48;;;;;;;;;;;18.30;99.90;;;16.25;72.44;101329.69;10524127;28;20381;-86
2022/10/06 09:50:02;;;;;;;;;;;18.40;99.90;;;16.18;71.23;101323.34;10520626;28;20450;-86
2022/10/06 09:55:17;;;;;;;;;;;18.40;99.90;;;16.19;71.34;101325.03;10524460;28;19936;-86
2022/10/06 10:00:31;;;;;;;;;;;18.40;99.90;;;16.26;71.31;101327.84;10537153;28;19960;-86
2022/10/06 10:05:37;;;;;;;;;;;18.40;99.90;;;16.38;70.79;101328.28;10531844;28;19928;-86
2022/10/06 10:10:40;;;;;;;;;;;18.60;99.90;;;16.63;70.82;101326.25;10520793;28;19937;-86
2022/10/06 10:15:53;;;;;;;;;;;18.80;99.90;;;16.81;70.31;101319.56;10496028;28;20360;-86
2022/10/06 10:21:07;;;;;;;;;;;19.00;99.90;;;17.18;70.40;101312.50;10509089;28;19935;-85
2022/10/06 10:27:07;;;;;;;;;;;19.30;99.90;;;17.34;68.00;101303.44;10528074;28;20011;-86
2022/10/06 10:32:18;;;;;;;;;;;19.50;99.50;;;17.51;66.82;101309.44;10453724;28;19936;-86
2022/10/06 10:37:28;;;;;;;;;;;19.70;98.60;;;17.75;66.22;101301.13;10511753;28;20087;-86
2022/10/06 10:42:55;;;;;;;;;;;19.90;98.40;;;17.99;65.63;101301.78;10528038;28;19932;-85
2022/10/06 10:48:05;;;;;;;;;;;20.10;98.10;;;18.18;64.34;101299.34;10537340;28;19935;-86
2022/10/06 10:53:19;;;;;;;;;;;20.40;97.50;;;18.51;64.65;101301.50;10513744;28;20299;-86
2022/10/06 10:58:36;;;;;;;;;;;20.60;96.60;;;18.81;64.09;101299.50;10541276;28;19928;-86
2022/10/06 11:03:39;;;;;;;;;;;20.80;95.40;;;18.83;61.69;101294.78;10536286;28;19936;-86
2022/10/06 11:08:48;;;;;;;;;;;21.00;95.90;;;19.00;62.95;101287.22;10538224;28;20023;-86
2022/10/06 11:13:53;;;;;;;;;;;21.10;96.20;;;19.17;61.40;101282.38;10535917;28;20047;-86
2022/10/06 11:19:01;;;;;;;;;;;21.30;95.10;;;19.17;60.03;101266.19;10515008;28;19928;-86
2022/10/06 11:24:19;;;;;;;;;;;21.40;94.30;;;19.37;60.50;101275.25;10534889;28;19928;-86
2022/10/06 11:29:35;;;;;;;;;;;21.60;94.10;;;19.58;60.32;101278.84;10498714;28;19928;-86
2022/10/06 11:34:40;;;;;;;;;;;21.80;93.80;;;19.92;58.48;101257.22;10503502;28;19971;-86
2022/10/06 11:40:13;;;;;;;;;;;22.30;93.30;;;20.27;57.87;101255.22;10529029;28;19959;-86
2022/10/06 11:45:22;;;;;;;;;;;22.60;92.90;;;20.34;57.23;101249.00;10516891;28;19928;-86
2022/10/06 11:50:35;;;;;;;;;;;22.70;91.70;;;20.35;58.44;101251.47;10504825;28;19936;-86
2022/10/06 11:55:38;;;;;;;;;;;22.60;91.50;;;20.23;57.70;101253.97;10541615;28;20002;-86
2022/10/06 12:00:44;;;;;;;;;;;22.50;91.30;;;20.08;58.07;101245.22;10547710;28;19936;-86
2022/10/06 12:05:46;;;;;;;;;;;22.30;91.10;;;19.93;58.12;101244.56;10546462;28;19929;-86
2022/10/06 12:10:58;;;;;;;;;;;22.20;91.10;;;19.84;58.06;101249.31;10531390;28;20308;-86
2022/10/06 12:16:18;;;;;;;;;;;22.00;91.20;;;19.75;58.21;101247.84;10529509;28;19978;-86
2022/10/06 12:22:21;;;;;;;;;;;22.00;91.00;;;19.71;58.10;101238.47;10537278;28;19935;-85
2022/10/06 12:27:25;;;;;;;;;;;21.90;90.90;;;19.69;58.53;101240.56;10504404;28;19982;-86
2022/10/06 12:32:37;;;;;;;;;;;21.90;90.70;;;19.68;59.03;101241.59;10537345;28;19928;-85
2022/10/06 12:37:41;;;;;;;;;;;21.90;90.80;;;19.68;59.73;101238.91;10544983;28;19970;-86
2022/10/06 12:42:44;;;;;;;;;;;21.90;90.90;;;19.76;59.72;101239.53;10541402;28;19929;-86
2022/10/06 12:47:47;;;;;;;;;;;21.90;90.90;;;19.84;59.17;101235.81;10505019;28;20457;-86
2022/10/06 12:52:59;;;;;;;;;;;21.90;90.80;;;19.82;59.05;101232.50;10542321;28;19935;-86
2022/10/06 12:58:03;;;;;;;;;;;21.90;90.30;;;19.78;58.94;101228.53;10541557;28;19935;-85
2022/10/06 13:03:07;;;;;;;;;;;21.90;90.30;;;19.78;59.04;101213.19;10544489;28;19929;-85
2022/10/06 13:08:23;;;;;;;;;;;21.80;90.30;;;19.68;58.28;101222.72;10537917;28;19971;-85
2022/10/06 13:13:27;;;;;;;;;;;21.80;90.00;;;19.61;58.70;101221.84;10547178;28;19971;-85
2022/10/06 13:18:31;;;;;;;;;;;21.70;90.00;;;19.49;59.21;101211.63;10512351;28;19928;-85
2022/10/06 13:23:36;;;;;;;;;;;21.60;90.10;;;19.47;60.33;101213.69;10540518;28;19935;-86
2022/10/06 13:28:42;;;;;;;;;;;21.50;90.60;;;19.47;60.14;101208.28;10520333;28;20360;-85
2022/10/06 13:33:47;;;;;;;;;;;21.50;90.40;;;19.49;61.35;101206.25;10542777;28;19935;-85
2022/10/06 13:38:50;;;;;;;;;;;21.50;90.90;;;19.54;61.63;101202.91;10536775;28;19975;-85
2022/10/06 13:44:00;;;;;;;;;;;21.50;91.40;;;19.45;60.48;101201.44;10529889;28;20387;-85
2022/10/06 13:49:18;;;;;;;;;;;21.50;90.70;;;19.33;61.31;101201.19;10513449;28;19932;-85
2022/10/06 13:54:30;;;;;;;;;;;21.40;90.90;;;19.23;61.72;101204.25;10526079;28;20463;-85
2022/10/06 13:59:36;;;;;;;;;;;21.20;91.00;;;19.21;61.38;101218.97;10527376;28;19929;-85
2022/10/06 14:04:38;;;;;;;;;;;21.30;91.10;;;19.23;61.44;101208.81;10531837;28;20027;-85
2022/10/06 14:09:41;;;;;;;;;;;21.20;91.00;;;19.28;61.80;101213.59;10528480;28;20019;-85
2022/10/06 14:14:48;;;;;;;;;;;21.30;91.10;;;19.35;62.80;101214.47;10531981;28;19928;-85
2022/10/06 14:19:50;;;;;;;;;;;21.30;91.50;;;19.41;63.84;101216.34;10541477;28;20031;-85
2022/10/06 14:24:53;;;;;;;;;;;21.40;91.90;;;19.37;63.89;101218.63;10532600;28;20023;-85
2022/10/06 14:29:56;;;;;;;;;;;21.40;91.90;;;19.34;64.78;101228.97;10505554;28;19928;-85
2022/10/06 14:35:00;;;;;;;;;;;21.30;92.20;;;19.25;64.78;101229.16;10508361;28;19935;-86
2022/10/06 14:40:03;;;;;;;;;;;21.30;92.40;;;19.16;64.57;101233.03;10499269;28;19928;-86
2022/10/06 14:45:12;;;;;;;;;;;21.20;92.50;;;19.07;65.12;101233.38;10519204;28;20011;-85
2022/10/06 14:50:15;;;;;;;;;;;21.00;92.70;;;18.94;65.99;101237.66;10539424;28;19928;-85
2022/10/06 14:55:17;;;;;;;;;;;20.90;93.10;;;18.83;67.40;101243.63;10483506;28;20392;-85
2022/10/06 15:00:21;;;;;;;;;;;20.80;93.80;;;18.69;68.03;101258.00;10509136;28;19935;-85
2022/10/06 15:05:24;;;;;;;;;;;20.60;94.10;;;18.58;68.41;101259.31;10541592;28;19979;-85
2022/10/06 15:10:26;;;;;;;;;;;20.50;94.10;;;18.43;67.60;101262.09;10536961;28;19959;-85
2022/10/06 15:15:32;;;;;;;;;;;20.30;93.70;;;18.32;67.92;101264.47;10534084;28;19928;-85
2022/10/06 15:20:35;;;;;;;;;;;20.20;93.90;;;18.21;68.41;101270.38;10524674;28;19971;-85
2022/10/06 15:30:59;;;;;;;;;;;20.00;94.20;;;17.95;68.00;101279.00;10510643;28;19928;-85
2022/10/06 15:36:15;;;;;;;;;;;19.90;93.60;;;17.85;68.34;101280.13;10518944;28;19928;-85
2022/10/06 15:41:18;;;;;;;;;;;19.70;94.10;;;17.74;68.93;101286.00;10542711;28;20019;-85
2022/10/06 15:46:31;;;;;;;;;;;19.60;94.50;;;17.62;69.16;101295.53;10550927;28;19928;-86
2022/10/06 15:51:37;;;;;;;;;;;19.50;94.60;;;17.52;69.56;101295.00;10546458;28;20312;-86
2022/10/06 15:56:40;;;;;;;;;;;19.40;94.70;;;17.41;70.30;101301.66;10547843;28;20418;-86
2022/10/06 16:01:45;;;;;;;;;;;19.30;95.10;;;17.30;71.16;101294.91;10522829;28;19978;-86
2022/10/06 16:06:52;;;;;;;;;;;19.20;95.50;;;17.18;71.69;101303.59;10529810;28;19928;-86
2022/10/06 16:11:57;;;;;;;;;;;19.10;95.50;;;17.04;71.81;101303.41;10528883;28;19928;-86
2022/10/06 16:17:04;;;;;;;;;;;19.00;95.90;;;16.95;72.36;101314.41;10539031;28;19936;-86
2022/10/06 16:22:10;;;;;;;;;;;18.90;96.10;;;16.82;72.88;101321.22;10531996;28;19928;-86
2022/10/06 16:27:14;;;;;;;;;;;18.80;95.80;;;16.72;73.42;101326.00;10541517;28;19982;-87
2022/10/06 16:32:17;;;;;;;;;;;18.70;96.40;;;16.61;74.25;101318.34;10536775;28;20404;-86
2022/10/06 16:37:19;;;;;;;;;;;18.50;96.80;;;16.50;73.88;101334.91;10528173;28;20023;-86
2022/10/06 16:42:23;;;;;;;;;;;18.40;96.50;;;16.44;74.16;101349.03;10528337;28;19928;-86
2022/10/06 16:47:26;;;;;;;;;;;18.40;97.00;;;16.38;74.60;101344.38;10512897;28;19950;-86
2022/10/06 16:52:28;;;;;;;;;;;18.30;97.00;;;16.33;75.01;101356.47;10519845;28;19929;-86
2022/10/06 16:57:31;;;;;;;;;;;18.20;97.20;;;16.31;74.83;101357.63;10538913;28;20666;-87
2022/10/06 17:02:35;;;;;;;;;;;18.20;97.40;;;16.27;75.22;101364.38;10533209;28;19935;-86
2022/10/06 17:07:38;;;;;;;;;;;18.20;97.30;;;16.23;75.72;101360.38;10539280;28;20374;-86
2022/10/06 17:12:41;;;;;;;;;;;18.20;97.60;;;16.18;76.14;101360.91;10529573;28;19928;-86
2022/10/06 17:17:44;;;;;;;;;;;18.10;97.70;;;16.05;76.71;101371.38;10539906;28;20443;-87
2022/10/06 17:22:47;;;;;;;;;;;18.00;97.90;;;15.93;77.27;101360.19;10518126;28;19928;-87
2022/10/06 17:27:50;;;;;;;;;;;17.90;98.50;;;15.78;78.01;101376.19;10539817;28;20315;-86
2022/10/06 17:32:53;;;;;;;;;;;17.70;98.80;;;15.63;78.29;101372.53;10523443;28;19933;-86
2022/10/06 17:37:55;;;;;;;;;;;17.60;99.10;;;15.47;79.10;101378.75;10523856;28;19928;-86
2022/10/06 17:42:58;;;;;;;;;;;17.40;99.70;;;15.36;79.79;101376.44;10540230;28;19936;-86
2022/10/06 17:48:01;;;;;;;;;;;17.30;99.80;;;15.22;80.20;101371.75;10517201;28;19932;-86
2022/10/06 17:53:04;;;;;;;;;;;17.20;99.90;;;15.08;80.80;101375.97;10514115;28;19978;-86
2022/10/06 17:58:07;;;;;;;;;;;17.00;99.90;;;14.98;81.40;101389.50;10543470;28;19928;-86
2022/10/06 18:03:10;;;;;;;;;;;16.90;99.90;;;14.91;81.89;101377.81;10529315;28;19932;-86
2022/10/06 18:08:12;;;;;;;;;;;16.80;99.90;;;14.85;82.65;101375.78;10512173;28;20073;-87
2022/10/06 18:13:15;;;;;;;;;;;16.70;99.90;;;14.83;82.91;101375.13;10537462;28;20023;-86
2022/10/06 18:18:23;;;;;;;;;;;16.70;99.90;;;14.76;82.94;101387.53;10520998;28;19951;-86
2022/10/06 18:23:27;;;;;;;;;;;16.70;99.90;;;14.69;83.35;101389.16;10538929;28;20429;-86
2022/10/06 18:28:29;;;;;;;;;;;16.60;99.90;;;14.56;83.37;101395.00;10509937;28;19958;-86
2022/10/06 18:33:33;;;;;;;;;;;16.50;99.90;;;14.48;84.03;101397.66;10532961;28;19932;-86
2022/10/06 18:38:56;;;;;;;;;;;16.40;99.90;;;14.39;84.11;101404.81;10511930;28;19932;-86
2022/10/06 18:43:59;;;;;;;;;;;16.30;99.90;;;14.29;84.69;101403.28;10519249;28;19928;-86
2022/10/06 18:49:14;;;;;;;;;;;16.20;99.90;;;14.19;85.17;101403.41;10538368;28;19932;-86
2022/10/06 18:54:22;;;;;;;;;;;16.10;99.90;;;14.10;85.48;101396.38;10526705;28;19935;-87
2022/10/06 18:59:26;;;;;;;;;;;16.00;99.90;;;13.97;85.72;101404.81;10519891;28;19929;-86
2022/10/06 19:04:34;;;;;;;;;;;15.80;99.90;;;13.86;86.33;101402.44;10515255;28;19928;-86
2022/10/06 19:09:37;;;;;;;;;;;15.70;99.90;;;13.79;86.87;101407.56;10536278;28;19924;-85
2022/10/06 19:14:46;;;;;;;;;;;15.60;99.90;;;13.74;87.42;101417.09;10544516;28;20032;-86
2022/10/06 19:19:53;;;;;;;;;;;15.60;99.90;;;13.70;87.72;101416.56;10532958;28;19951;-85
2022/10/06 19:24:56;;;;;;;;;;;15.50;99.90;;;13.65;88.03;101414.34;10547372;28;20062;-86
2022/10/06 19:29:59;;;;;;;;;;;15.50;99.90;;;13.60;88.41;101424.66;10518999;28;19928;-86
2022/10/06 19:35:02;;;;;;;;;;;15.40;99.90;;;13.54;89.06;101421.78;10519445;28;19936;-87
2022/10/06 19:40:11;;;;;;;;;;;15.40;99.90;;;13.45;88.74;101430.75;10546114;28;20045;-87
2022/10/06 19:45:15;;;;;;;;;;;15.30;99.90;;;13.39;89.14;101429.53;10519103;28;19932;-87
2022/10/06 19:50:18;;;;;;;;;;;15.20;99.90;;;13.28;89.29;101427.13;10532317;28;20391;-87
2022/10/06 19:55:22;;;;;;;;;;;15.10;99.90;;;13.22;89.66;101447.25;10537063;28;19928;-87
2022/10/06 20:00:26;;;;;;;;;;;15.00;99.90;;;13.13;90.27;101451.69;10537078;28;19934;-86
2022/10/06 20:05:28;;;;;;;;;;;15.00;99.90;;;13.11;90.52;101448.31;10544228;28;19928;-86
2022/10/06 20:10:33;;;;;;;;;;;15.00;99.90;;;13.08;90.61;101453.13;10548471;28;19928;-86
2022/10/06 20:15:36;;;;;;;;;;;14.90;99.90;;;12.98;90.92;101455.88;10542063;28;19928;-86
2022/10/06 20:20:39;;;;;;;;;;;14.80;99.90;;;12.93;91.20;101458.16;10509371;28;20005;-86
2022/10/06 20:25:41;;;;;;;;;;;14.80;99.90;;;12.89;91.51;101462.09;10540382;28;20045;-86
2022/10/06 20:30:48;;;;;;;;;;;14.80;99.90;;;12.81;91.40;101470.03;10513009;28;20023;-87
2022/10/06 20:35:51;;;;;;;;;;;14.70;99.90;;;12.76;91.91;101464.31;10541945;28;20020;-86
2022/10/06 20:41:16;;;;;;;;;;;14.60;99.90;;;12.72;92.13;101465.63;10535361;28;19982;-86
2022/10/06 20:46:20;;;;;;;;;;;14.60;99.90;;;12.62;92.14;101476.34;10520608;28;20418;-86
2022/10/06 20:51:23;;;;;;;;;;;14.50;99.90;;;12.55;92.43;101464.59;10537986;28;20388;-86
2022/10/06 20:56:32;;;;;;;;;;;14.40;99.90;;;12.48;92.84;101468.88;10504145;28;20396;-85
2022/10/06 21:01:36;;;;;;;;;;;14.40;99.90;;;12.48;93.23;101466.19;10535226;28;19928;-86
2022/10/06 21:06:40;;;;;;;;;;;14.30;99.90;;;12.47;93.22;101461.84;10515580;28;20376;-86
2022/10/06 21:11:43;;;;;;;;;;;14.30;99.90;;;12.43;93.60;101471.13;10514232;28;20284;-86
2022/10/06 21:16:47;;;;;;;;;;;14.30;99.90;;;12.39;93.85;101473.25;10540578;28;20019;-86
2022/10/06 21:21:50;;;;;;;;;;;14.30;99.90;;;12.33;93.99;101477.34;10530673;28;20350;-86
2022/10/06 21:26:53;;;;;;;;;;;14.20;99.90;;;12.24;94.02;101470.25;10500853;28;19929;-86
2022/10/06 21:31:56;;;;;;;;;;;14.20;99.90;;;12.22;94.39;101480.19;10534860;28;19932;-86
2022/10/06 21:36:59;;;;;;;;;;;14.10;99.90;;;12.18;94.47;101459.34;10533060;28;19978;-85
2022/10/06 21:42:01;;;;;;;;;;;14.10;99.90;;;12.10;94.60;101473.38;10539857;28;19928;-85
2022/10/06 21:47:04;;;;;;;;;;;14.00;99.90;;;12.05;95.00;101473.84;10508893;28;19929;-86
2022/10/06 21:52:07;;;;;;;;;;;14.00;99.90;;;12.03;94.93;101481.13;10511992;28;19928;-86
2022/10/06 21:57:10;;;;;;;;;;;14.00;99.90;;;11.98;95.03;101480.72;10540923;28;19928;-85
2022/10/06 22:02:12;;;;;;;;;;;13.90;99.90;;;11.94;95.43;101476.69;10519701;28;19967;-86
2022/10/06 22:07:15;;;;;;;;;;;13.80;99.90;;;11.88;95.67;101474.59;10526267;28;19931;-85
2022/10/06 22:12:18;;;;;;;;;;;13.80;99.90;;;11.82;95.69;101482.34;10507391;28;20765;-86
2022/10/06 22:17:21;;;;;;;;;;;13.70;99.90;;;11.76;95.93;101489.06;10536550;28;19935;-86
2022/10/06 22:22:23;;;;;;;;;;;13.70;99.90;;;11.69;96.00;101482.59;10520571;28;19983;-85
2022/10/06 22:27:26;;;;;;;;;;;13.60;99.90;;;11.64;96.06;101490.19;10542873;28;19936;-86
2022/10/06 22:32:30;;;;;;;;;;;13.50;99.90;;;11.58;96.24;101488.09;10531089;28;20451;-86
2022/10/06 22:37:32;;;;;;;;;;;13.50;99.90;;;11.49;96.16;101477.31;10536320;28;19982;-86
2022/10/06 22:42:35;;;;;;;;;;;13.40;99.90;;;11.46;96.49;101482.94;10541215;28;19935;-86
2022/10/06 22:47:38;;;;;;;;;;;13.40;99.90;;;11.43;96.74;101480.53;10520256;28;19928;-86
2022/10/06 22:52:40;;;;;;;;;;;13.40;99.90;;;11.44;96.87;101474.22;10520792;28;19928;-86
2022/10/06 22:57:43;;;;;;;;;;;13.30;99.90;;;11.42;97.04;101475.38;10538815;28;19928;-85
2022/10/06 23:02:46;;;;;;;;;;;13.30;99.90;;;11.41;97.47;101469.22;10516014;28;19928;-85
2022/10/06 23:07:50;;;;;;;;;;;13.30;99.90;;;11.38;97.34;101472.13;10521994;28;19928;-85
2022/10/06 23:12:54;;;;;;;;;;;13.30;99.90;;;11.35;97.61;101452.97;10530670;28;19928;-86
2022/10/06 23:17:57;;;;;;;;;;;13.30;99.90;;;11.28;97.42;101458.03;10528668;28;19928;-85